Time;durP1;ratioP1;P1;durP2;ratioP2;P2;SDS_P1;SDS_P2;PMS_P1;PMS_P2;Temp;Humidity;BMP_temperature;BMP_pressure;BME280_temperature;BME280_humidity;BME280_pressure;Samples;Min_cycle;Max_cycle;Signal;HPM_P1;HPM_P2
2023/10/29 00:02:17;;;;;;;8.63;2.75;;;;;;;11.29;100.00;99052.91;5080910;28;20083;-60
2023/10/29 00:04:42;;;;;;;10.65;2.80;;;;;;;11.31;100.00;99046.66;5084150;28;20085;-60
2023/10/29 00:07:08;;;;;;;11.50;2.80;;;;;;;11.34;100.00;99029.81;5081268;28;20040;-60
2023/10/29 00:09:33;;;;;;;10.50;2.72;;;;;;;11.33;100.00;99038.69;5082857;28;20087;-60
2023/10/29 00:11:58;;;;;;;11.35;2.90;;;;;;;11.36;100.00;99028.03;5082901;28;20438;-60
2023/10/29 00:14:24;;;;;;;10.50;2.90;;;;;;;11.42;100.00;99032.28;5081282;28;20029;-60
2023/10/29 00:16:50;;;;;;;12.05;2.88;;;;;;;11.48;100.00;99021.50;5084065;28;20407;-61
2023/10/29 00:19:15;;;;;;;9.25;2.80;;;;;;;11.44;100.00;99010.13;5080521;28;20029;-60
2023/10/29 00:21:41;;;;;;;10.13;2.83;;;;;;;11.42;100.00;98990.81;5083566;28;20024;-61
2023/10/29 00:24:07;;;;;;;13.85;3.05;;;;;;;11.36;100.00;98979.50;5081431;28;20488;-60
2023/10/29 00:26:32;;;;;;;8.07;2.60;;;;;;;11.31;100.00;98964.66;5082986;28;20093;-60
2023/10/29 00:28:58;;;;;;;10.18;2.80;;;;;;;11.32;100.00;98960.22;5086674;28;20081;-61
2023/10/29 00:31:24;;;;;;;9.82;2.80;;;;;;;11.36;100.00;98959.25;5085290;28;20035;-61
2023/10/29 00:33:50;;;;;;;11.10;2.95;;;;;;;11.28;100.00;98953.28;5087617;28;20177;-60
2023/10/29 00:36:16;;;;;;;11.43;3.03;;;;;;;11.30;100.00;98962.91;5084316;28;20120;-61
2023/10/29 00:38:41;;;;;;;11.57;3.17;;;;;;;11.28;100.00;98962.06;5087220;28;20035;-60
2023/10/29 00:41:06;;;;;;;11.00;2.80;;;;;;;11.29;100.00;98965.63;5085059;28;20031;-60
2023/10/29 00:43:41;;;;;;;9.20;2.67;;;;;;;11.30;100.00;98992.03;5086060;28;20111;-60
2023/10/29 00:46:08;;;;;;;7.95;2.83;;;;;;;11.35;100.00;98983.94;5085139;28;20036;-61
2023/10/29 00:48:34;;;;;;;10.90;2.90;;;;;;;11.41;100.00;98972.31;5085891;28;20367;-61
2023/10/29 00:51:00;;;;;;;12.60;2.88;;;;;;;11.50;100.00;98978.22;5085982;28;20024;-60
2023/10/29 00:53:27;;;;;;;11.95;2.72;;;;;;;11.57;100.00;98967.47;5084883;28;20056;-70
2023/10/29 00:55:53;;;;;;;10.35;2.60;;;;;;;11.62;100.00;98981.41;5086630;28;20506;-70
2023/10/29 00:58:19;;;;;;;9.43;2.65;;;;;;;11.60;100.00;98972.66;5083870;28;20079;-69
2023/10/29 01:00:45;;;;;;;9.23;2.90;;;;;;;11.50;100.00;98970.28;5079846;28;20036;-70
2023/10/29 01:03:10;;;;;;;7.57;2.60;;;;;;;11.59;100.00;98957.69;5086666;28;20032;-69
2023/10/29 01:05:37;;;;;;;10.80;2.70;;;;;;;11.51;100.00;98953.47;5084907;28;20032;-69
2023/10/29 01:08:05;;;;;;;10.63;2.60;;;;;;;11.55;100.00;98942.81;5085702;28;20478;-70
2023/10/29 01:10:31;;;;;;;8.20;2.60;;;;;;;11.66;100.00;98948.66;5085592;28;20028;-70
2023/10/29 01:12:56;;;;;;;8.63;2.42;;;;;;;11.60;100.00;98952.34;5084425;28;20028;-64
2023/10/29 01:15:22;;;;;;;7.82;2.50;;;;;;;11.69;100.00;98936.22;5087047;28;20390;-69
2023/10/29 01:17:47;;;;;;;8.98;2.65;;;;;;;11.61;100.00;98937.34;5083467;28;20079;-68
2023/10/29 01:20:13;;;;;;;8.43;2.65;;;;;;;11.52;100.00;98933.19;5086797;28;20479;-69
2023/10/29 01:22:38;;;;;;;9.90;2.70;;;;;;;11.59;100.00;98920.63;5084288;28;20032;-70
2023/10/29 01:25:07;;;;;;;9.10;2.60;;;;;;;11.58;100.00;98926.84;5084940;28;20123;-70
2023/10/29 01:27:33;;;;;;;8.50;2.60;;;;;;;11.55;100.00;98932.22;5085075;28;20031;-70
2023/10/29 01:29:58;;;;;;;9.32;2.42;;;;;;;11.57;100.00;98941.00;5084489;28;20097;-69
2023/10/29 01:32:24;;;;;;;9.48;2.67;;;;;;;11.56;100.00;98918.94;5086005;28;20467;-70
2023/10/29 01:34:50;;;;;;;9.90;2.60;;;;;;;11.62;100.00;98932.00;5083401;28;20035;-70
2023/10/29 01:37:15;;;;;;;7.13;2.70;;;;;;;11.57;100.00;98925.97;5078660;28;20028;-70
2023/10/29 01:39:41;;;;;;;10.07;2.40;;;;;;;11.63;100.00;98894.03;5085753;28;20055;-70
2023/10/29 01:42:06;;;;;;;5.15;2.38;;;;;;;11.62;100.00;98912.59;5084355;28;20035;-70
2023/10/29 01:44:31;;;;;;;9.30;2.60;;;;;;;11.59;100.00;98899.47;5084494;28;20032;-69
2023/10/29 01:46:57;;;;;;;9.15;2.60;;;;;;;11.51;100.00;98889.13;5085249;28;20476;-70
2023/10/29 01:49:22;;;;;;;9.05;2.60;;;;;;;11.49;100.00;98896.25;5083299;28;20106;-69
2023/10/29 01:51:49;;;;;;;7.10;2.50;;;;;;;11.49;100.00;98886.53;5086248;28;20028;-70
2023/10/29 01:54:15;;;;;;;8.85;2.50;;;;;;;11.45;100.00;98900.75;5082754;28;20041;-69
2023/10/29 01:56:41;;;;;;;8.98;2.67;;;;;;;11.45;100.00;98906.03;5085530;28;20074;-68
2023/10/29 01:59:06;;;;;;;8.50;2.60;;;;;;;11.34;100.00;98901.09;5083926;28;20436;-67
2023/10/29 02:01:31;;;;;;;8.75;2.42;;;;;;;11.34;100.00;98903.72;5084412;28;20042;-70
2023/10/29 02:03:57;;;;;;;8.73;2.50;;;;;;;11.38;100.00;98909.78;5085039;28;20106;-69
2023/10/29 02:06:22;;;;;;;6.53;2.42;;;;;;;11.43;100.00;98910.53;5082810;28;20364;-68
2023/10/29 02:08:48;;;;;;;8.27;2.58;;;;;;;11.47;100.00;98914.78;5086171;28;20452;-69
2023/10/29 02:11:13;;;;;;;9.48;2.63;;;;;;;11.50;100.00;98914.72;5082521;28;20029;-69
2023/10/29 02:13:38;;;;;;;9.68;2.50;;;;;;;11.59;100.00;98918.88;5084849;28;20032;-70
2023/10/29 02:16:04;;;;;;;8.52;2.63;;;;;;;11.56;100.00;98923.38;5084024;28;20115;-70
2023/10/29 02:18:30;;;;;;;6.13;2.30;;;;;;;11.62;100.00;98894.06;5083492;28;20029;-69
2023/10/29 02:20:55;;;;;;;9.32;2.50;;;;;;;11.58;100.00;98911.84;5085052;28;20035;-70
2023/10/29 02:23:20;;;;;;;7.63;2.58;;;;;;;11.67;100.00;98884.22;5082415;28;20029;-70
2023/10/29 02:25:46;;;;;;;6.60;2.40;;;;;;;11.68;100.00;98917.72;5085425;28;20035;-70
2023/10/29 02:28:11;;;;;;;11.45;2.60;;;;;;;11.63;100.00;98904.59;5082651;28;20036;-69
2023/10/29 02:30:37;;;;;;;5.68;2.42;;;;;;;11.61;100.00;98910.88;5084467;28;20119;-69
2023/10/29 02:33:02;;;;;;;7.45;2.60;;;;;;;11.59;100.00;98899.47;5083807;28;20033;-68
2023/10/29 02:35:28;;;;;;;7.45;2.60;;;;;;;11.66;100.00;98906.31;5082875;28;20029;-68
2023/10/29 02:37:54;;;;;;;6.97;2.40;;;;;;;11.68;100.00;98908.00;5084958;28;20035;-69
2023/10/29 02:40:20;;;;;;;6.50;2.38;;;;;;;11.73;100.00;98896.41;5063883;28;20020;-69
2023/10/29 02:42:45;;;;;;;7.82;2.40;;;;;;;11.68;100.00;98896.56;5085274;28;20030;-69
2023/10/29 02:45:11;;;;;;;6.03;2.28;;;;;;;11.75;100.00;98899.84;5082213;28;20029;-68
2023/10/29 02:47:37;;;;;;;9.57;2.75;;;;;;;11.86;100.00;98890.66;5084004;28;20460;-70
2023/10/29 02:50:02;;;;;;;4.57;2.20;;;;;;;11.93;100.00;98883.44;5082950;28;20036;-69
2023/10/29 02:52:28;;;;;;;8.00;2.35;;;;;;;11.93;100.00;98880.78;5082648;28;20025;-69
2023/10/29 02:54:53;;;;;;;5.00;2.25;;;;;;;11.93;100.00;98882.53;5084493;28;20048;-69
2023/10/29 02:57:18;;;;;;;8.57;2.30;;;;;;;11.97;100.00;98887.72;5081668;28;20033;-66
2023/10/29 02:59:44;;;;;;;6.43;2.20;;;;;;;12.00;100.00;98890.25;5084709;28;20053;-69
2023/10/29 03:02:09;;;;;;;6.68;2.10;;;;;;;12.04;100.00;98880.41;5082271;28;20394;-69
2023/10/29 03:04:34;;;;;;;7.78;2.00;;;;;;;12.19;100.00;98874.63;5083618;28;20473;-67
2023/10/29 03:07:00;;;;;;;6.80;2.03;;;;;;;12.26;100.00;98866.47;5083619;28;20112;-69
2023/10/29 03:09:25;;;;;;;4.97;2.10;;;;;;;12.26;100.00;98863.81;5081965;28;20395;-69
2023/10/29 03:11:50;;;;;;;5.78;2.00;;;;;;;12.33;100.00;98863.56;5085064;28;20085;-69
2023/10/29 03:14:16;;;;;;;5.25;2.03;;;;;;;12.40;100.00;98864.22;5076992;28;20033;-69
2023/10/29 03:16:41;;;;;;;5.03;2.00;;;;;;;12.41;100.00;98860.66;5084305;28;20082;-69
2023/10/29 03:19:07;;;;;;;3.78;2.08;;;;;;;12.50;100.00;98865.63;5082692;28;20028;-68
2023/10/29 03:21:32;;;;;;;4.80;2.05;;;;;;;12.54;100.00;98874.34;5082766;28;20077;-67
2023/10/29 03:23:58;;;;;;;7.80;2.10;;;;;;;12.47;100.00;98871.03;5083708;28;20077;-67
2023/10/29 03:26:23;;;;;;;5.53;1.90;;;;;;;12.46;100.00;98884.34;5081349;28;20024;-69
2023/10/29 03:28:49;;;;;;;6.55;2.00;;;;;;;12.58;100.00;98883.91;5084451;28;20031;-70
2023/10/29 03:31:16;;;;;;;6.07;2.10;;;;;;;12.28;100.00;98884.03;5081380;28;20497;-67
2023/10/29 03:33:41;;;;;;;5.47;2.10;;;;;;;12.04;100.00;98888.38;5083763;28;20059;-70
2023/10/29 03:36:08;;;;;;;10.80;2.22;;;;;;;11.89;100.00;98895.00;5082167;28;20474;-70
2023/10/29 03:38:34;;;;;;;7.30;2.15;;;;;;;12.08;100.00;98883.84;5082892;28;20063;-70
2023/10/29 03:40:59;;;;;;;6.22;2.10;;;;;;;12.09;100.00;98886.44;5083214;28;20116;-69
2023/10/29 03:43:25;;;;;;;5.63;2.20;;;;;;;12.09;100.00;98893.53;5081353;28;20028;-69
2023/10/29 03:45:50;;;;;;;4.55;2.00;;;;;;;11.86;100.00;98889.81;5084472;28;20115;-68
2023/10/29 03:48:16;;;;;;;7.82;2.00;;;;;;;11.83;100.00;98890.75;5080940;28;20117;-69
2023/10/29 03:50:42;;;;;;;6.38;2.13;;;;;;;11.84;100.00;98892.50;5083589;28;20027;-68
2023/10/29 03:53:07;;;;;;;4.90;2.00;;;;;;;11.96;100.00;98878.03;5082219;28;20028;-70
2023/10/29 03:55:36;;;;;;;4.80;2.00;;;;;;;12.14;100.00;98873.03;5082209;28;20398;-68
2023/10/29 03:58:02;;;;;;;5.05;2.00;;;;;;;12.27;100.00;98884.09;5082806;28;20024;-67
2023/10/29 04:00:28;;;;;;;5.45;2.10;;;;;;;12.30;100.00;98868.94;5082197;28;20025;-69
2023/10/29 04:02:53;;;;;;;6.35;2.10;;;;;;;12.31;100.00;98870.69;5088039;28;20035;-69
2023/10/29 04:05:19;;;;;;;7.38;2.15;;;;;;;12.32;100.00;98866.25;5084830;28;20037;-69
2023/10/29 04:07:44;;;;;;;6.60;2.10;;;;;;;12.45;100.00;98869.34;5088065;28;20127;-69
2023/10/29 04:10:09;;;;;;;5.93;2.10;;;;;;;12.55;100.00;98869.00;5067546;28;20059;-69
2023/10/29 04:12:35;;;;;;;7.60;2.10;;;;;;;12.64;100.00;98864.25;5086754;28;20075;-69
2023/10/29 04:15:00;;;;;;;5.55;1.90;;;;;;;12.65;100.00;98871.31;5086752;28;20064;-70
2023/10/29 04:17:25;;;;;;;6.90;2.03;;;;;;;12.61;100.00;98888.22;5085150;28;20445;-70
2023/10/29 04:19:51;;;;;;;6.13;2.00;;;;;;;12.61;100.00;98888.22;5088307;28;20024;-70
2023/10/29 04:22:17;;;;;;;5.25;2.00;;;;;;;12.62;100.00;98884.66;5084460;28;20025;-70
2023/10/29 04:24:43;;;;;;;7.60;2.22;;;;;;;12.66;100.00;98881.00;5087194;28;20039;-69
2023/10/29 04:27:08;;;;;;;4.90;2.00;;;;;;;12.68;100.00;98905.66;5085779;28;20028;-69
2023/10/29 04:29:33;;;;;;;8.90;2.22;;;;;;;12.61;100.00;98893.53;5085995;28;20078;-67
2023/10/29 04:31:59;;;;;;;6.25;2.10;;;;;;;12.41;100.00;98903.03;5086598;28;20028;-69
2023/10/29 04:34:24;;;;;;;6.75;2.20;;;;;;;12.35;100.00;98884.72;5084846;28;20391;-69
2023/10/29 04:36:51;;;;;;;5.95;2.20;;;;;;;12.11;100.00;98889.91;5087758;28;20024;-69
2023/10/29 04:39:20;;;;;;;7.88;2.10;;;;;;;12.09;100.00;98886.44;5080049;28;20032;-69
2023/10/29 04:41:46;;;;;;;9.30;2.10;;;;;;;12.13;100.00;98913.69;5087574;28;20031;-69
2023/10/29 04:44:12;;;;;;;8.23;2.33;;;;;;;12.19;100.00;98895.81;5084698;28;20033;-68
2023/10/29 04:46:37;;;;;;;7.47;2.10;;;;;;;12.33;100.00;98891.81;5086007;28;20031;-70
2023/10/29 04:49:03;;;;;;;10.32;2.35;;;;;;;12.46;100.00;98903.75;5086090;28;20471;-70
2023/10/29 04:51:30;;;;;;;8.60;2.03;;;;;;;12.58;100.00;98898.94;5084839;28;20154;-69
2023/10/29 04:53:55;;;;;;;7.97;2.00;;;;;;;12.59;100.00;98892.72;5086894;28;20027;-70
2023/10/29 04:56:20;;;;;;;8.18;2.20;;;;;;;12.69;100.00;98894.13;5083966;28;20060;-70
2023/10/29 04:58:46;;;;;;;8.73;2.10;;;;;;;12.73;100.00;98887.81;5087085;28;20024;-70
2023/10/29 05:01:11;;;;;;;7.05;2.10;;;;;;;12.59;100.00;98895.38;5084699;28;20159;-70
2023/10/29 05:03:36;;;;;;;9.50;2.08;;;;;;;12.47;100.00;98891.38;5085716;28;20032;-70
2023/10/29 05:06:03;;;;;;;10.23;2.35;;;;;;;12.28;100.00;98901.72;5085679;28;20040;-70
2023/10/29 05:08:29;;;;;;;7.78;2.10;;;;;;;12.13;100.00;98903.97;5084889;28;20518;-70
2023/10/29 05:10:55;;;;;;;6.05;2.20;;;;;;;11.97;100.00;98910.66;5086675;28;20028;-70
2023/10/29 05:13:20;;;;;;;10.10;2.10;;;;;;;12.17;100.00;98931.22;5082869;28;20494;-70
2023/10/29 05:15:45;;;;;;;8.95;2.35;;;;;;;12.29;100.00;98922.00;5086941;28;20032;-70
2023/10/29 05:18:11;;;;;;;11.68;2.40;;;;;;;12.06;100.00;98955.41;5084130;28;20028;-70
2023/10/29 05:20:37;;;;;;;14.93;2.80;;;;;;;11.75;100.00;98960.72;5085375;28;20059;-68
2023/10/29 05:23:03;;;;;;;11.98;2.53;;;;;;;11.30;100.00;98959.38;5085916;28;20118;-67
2023/10/29 05:25:28;;;;;;;13.48;2.92;;;;;;;11.15;100.00;98982.75;5083979;28;20036;-68
2023/10/29 05:27:55;;;;;;;11.68;2.63;;;;;;;11.05;100.00;98989.16;5086603;28;20063;-68
2023/10/29 05:30:21;;;;;;;11.45;2.80;;;;;;;10.97;100.00;98986.72;5083664;28;20387;-67
2023/10/29 05:32:47;;;;;;;11.57;2.58;;;;;;;10.86;100.00;98970.28;5086475;28;20103;-67
2023/10/29 05:35:12;;;;;;;14.75;2.92;;;;;;;10.68;100.00;98976.06;5083763;28;20059;-67
2023/10/29 05:37:38;;;;;;;7.88;2.20;;;;;;;10.51;100.00;98973.84;5085461;28;20036;-65
2023/10/29 05:40:04;;;;;;;9.75;2.30;;;;;;;10.37;100.00;98982.09;5085028;28;20024;-68
2023/10/29 05:42:33;;;;;;;10.57;2.30;;;;;;;10.35;100.00;98973.34;5083943;28;20395;-67
2023/10/29 05:44:59;;;;;;;10.82;2.30;;;;;;;10.26;100.00;99000.81;5085564;28;20028;-66
2023/10/29 05:47:24;;;;;;;14.10;2.50;;;;;;;10.19;100.00;98993.94;5082981;28;20521;-66
2023/10/29 05:49:50;;;;;;;11.07;2.40;;;;;;;10.14;100.00;99006.41;5086387;28;20059;-67
2023/10/29 05:52:15;;;;;;;8.38;2.30;;;;;;;10.14;100.00;99006.41;5083480;28;20029;-67
2023/10/29 05:54:40;;;;;;;13.48;2.60;;;;;;;10.12;100.00;99015.22;5085101;28;20468;-67
2023/10/29 05:57:06;;;;;;;13.13;2.50;;;;;;;10.09;100.00;99036.41;5084585;28;20024;-67
2023/10/29 05:59:32;;;;;;;12.20;2.60;;;;;;;10.17;100.00;99038.03;5084211;28;20400;-67
2023/10/29 06:01:58;;;;;;;12.18;2.60;;;;;;;10.20;100.00;99048.50;5085368;28;20502;-67
2023/10/29 06:04:23;;;;;;;16.52;3.13;;;;;;;10.23;100.00;99061.63;5082956;28;20115;-67
2023/10/29 06:06:49;;;;;;;14.90;2.90;;;;;;;10.25;100.00;99062.47;5086047;28;20534;-67
2023/10/29 06:09:14;;;;;;;16.20;3.10;;;;;;;10.25;100.00;99055.41;5082996;28;20036;-68
2023/10/29 06:11:41;;;;;;;14.38;3.15;;;;;;;10.29;100.00;99058.84;5084967;28;20471;-63
2023/10/29 06:14:07;;;;;;;12.95;2.85;;;;;;;10.27;100.00;99066.81;5083864;28;20103;-68
2023/10/29 06:16:32;;;;;;;16.00;3.03;;;;;;;10.24;100.00;99072.16;5083737;28;20033;-69
2023/10/29 06:18:57;;;;;;;15.63;2.90;;;;;;;10.25;100.00;99086.22;5085186;28;20028;-61
2023/10/29 06:21:23;;;;;;;15.10;3.10;;;;;;;10.28;100.00;99075.59;5082293;28;20103;-63
2023/10/29 06:23:49;;;;;;;13.18;2.90;;;;;;;10.26;100.00;99087.97;5084997;28;20120;-61
2023/10/29 06:26:15;;;;;;;13.82;2.97;;;;;;;10.25;100.00;99088.88;5082690;28;20067;-61
2023/10/29 06:28:40;;;;;;;13.82;2.70;;;;;;;10.23;100.00;99086.25;5084541;28;20087;-61
2023/10/29 06:31:06;;;;;;;16.48;3.00;;;;;;;10.17;100.00;99096.97;5083794;28;20063;-61
2023/10/29 06:33:31;;;;;;;15.32;2.80;;;;;;;10.17;100.00;99099.59;5083249;28;20039;-62
2023/10/29 06:35:57;;;;;;;15.57;2.70;;;;;;;10.09;100.00;99080.41;5084830;28;20035;-62
2023/10/29 06:38:24;;;;;;;14.57;2.67;;;;;;;10.11;100.00;99094.47;5081941;28;20028;-62
2023/10/29 06:40:49;;;;;;;14.20;2.60;;;;;;;10.21;100.00;99103.06;5078201;28;20024;-61
2023/10/29 06:43:15;;;;;;;16.73;2.80;;;;;;;10.17;100.00;99096.09;5084802;28;20020;-62
2023/10/29 06:45:40;;;;;;;17.70;2.80;;;;;;;10.12;100.00;99106.78;5082982;28;20085;-61
2023/10/29 06:48:05;;;;;;;14.88;2.78;;;;;;;10.14;100.00;99110.25;5083436;28;20037;-62
2023/10/29 06:50:31;;;;;;;16.02;2.70;;;;;;;10.15;100.00;99124.28;5083965;28;20425;-61
2023/10/29 06:52:56;;;;;;;16.58;2.90;;;;;;;10.19;100.00;99129.47;5082171;28;20039;-61
2023/10/29 06:55:23;;;;;;;14.13;2.53;;;;;;;10.18;100.00;99127.75;5084917;28;20102;-61
2023/10/29 06:57:48;;;;;;;19.55;3.00;;;;;;;10.18;100.00;99129.50;5081571;28;20032;-62
2023/10/29 07:00:15;;;;;;;15.68;2.70;;;;;;;10.06;100.00;99122.72;5084597;28;20032;-62
2023/10/29 07:02:41;;;;;;;16.15;2.70;;;;;;;10.04;100.00;99135.94;5082498;28;20452;-69
2023/10/29 09:03:42;;;;;;;16.73;2.80;;;;;;;14.79;100.00;99253.88;5131078;27;20387;-61
2023/10/29 09:06:08;;;;;;;12.80;2.55;;;;;;;15.06;100.00;99260.84;5119239;28;20047;-59
2023/10/29 09:08:34;;;;;;;11.10;2.20;;;;;;;15.13;100.00;99267.63;5120999;28;20020;-59
2023/10/29 09:10:59;;;;;;;12.80;2.50;;;;;;;15.24;100.00;99268.06;5120562;28;20050;-60
2023/10/29 09:13:26;;;;;;;15.13;2.60;;;;;;;14.94;100.00;99281.66;5101331;28;20028;-59
2023/10/29 09:15:52;;;;;;;14.95;2.50;;;;;;;14.59;100.00;99270.53;5121440;28;20481;-60
2023/10/29 09:18:18;;;;;;;14.60;2.50;;;;;;;14.30;100.00;99269.81;5118715;28;20081;-59
2023/10/29 09:20:46;;;;;;;12.82;2.78;;;;;;;14.10;100.00;99290.91;5114208;28;20375;-59
2023/10/29 09:23:13;;;;;;;16.60;2.70;;;;;;;13.90;100.00;99294.25;5121691;28;20074;-61
2023/10/29 09:25:39;;;;;;;16.02;2.60;;;;;;;14.02;100.00;99298.25;5118919;28;20028;-61
2023/10/29 09:28:05;;;;;;;16.73;2.78;;;;;;;14.36;100.00;99279.34;5120725;28;20034;-61
2023/10/29 09:30:31;;;;;;;18.25;2.60;;;;;;;14.73;100.00;99274.50;5120362;28;20089;-60
2023/10/29 09:32:56;;;;;;;14.18;2.45;;;;;;;15.16;100.00;99284.34;5119439;28;20059;-61
2023/10/29 09:35:22;;;;;;;16.10;2.60;;;;;;;15.34;100.00;99284.56;5121320;28;20381;-60
2023/10/29 09:37:47;;;;;;;15.43;2.40;;;;;;;15.71;100.00;99277.72;5118369;28;20024;-60
2023/10/29 09:40:15;;;;;;;15.45;2.90;;;;;;;15.56;100.00;99278.38;5103731;28;20105;-60
2023/10/29 09:42:54;;;;;;;16.15;2.80;;;;;;;15.33;100.00;99305.00;5118574;28;20474;-61
2023/10/29 09:45:25;;;;;;;13.82;2.50;;;;;;;15.02;100.00;99283.16;5114954;28;20426;-61
2023/10/29 09:47:52;;;;;;;12.45;2.42;;;;;;;15.12;100.00;99281.88;5121564;28;20022;-62
2023/10/29 09:50:19;;;;;;;14.52;2.50;;;;;;;15.27;100.00;99283.91;5118285;28;20027;-61
2023/10/29 09:52:48;;;;;;;18.20;2.60;;;;;;;15.38;100.00;99280.84;5114010;28;20024;-61
2023/10/29 09:55:15;;;;;;;17.05;2.58;;;;;;;15.42;100.00;99286.91;5113800;28;20031;-61
2023/10/29 09:57:40;;;;;;;13.93;2.47;;;;;;;15.22;100.00;99296.56;5121234;28;20469;-61
2023/10/29 10:00:07;;;;;;;13.80;2.60;;;;;;;15.07;100.00;99282.06;5119159;28;20040;-62
2023/10/29 10:02:32;;;;;;;16.42;2.85;;;;;;;14.73;100.00;99264.72;5106174;28;20078;-67
2023/10/29 10:05:00;;;;;;;14.43;2.60;;;;;;;14.55;100.00;99247.63;5086105;28;20478;-72
2023/10/29 10:07:25;;;;;;;13.65;2.60;;;;;;;14.46;100.00;99258.63;5066624;28;20069;-71
2023/10/29 10:09:55;;;;;;;15.05;2.50;;;;;;;14.31;100.00;99254.72;5087305;28;20119;-72
2023/10/29 10:12:21;;;;;;;14.52;2.50;;;;;;;14.19;100.00;99255.16;5084032;28;20521;-72
2023/10/29 10:14:48;;;;;;;15.50;2.50;;;;;;;13.98;100.00;99262.09;5087368;28;20032;-72
2023/10/29 10:17:14;;;;;;;16.92;2.80;;;;;;;13.90;100.00;99270.34;5083569;28;20021;-72
2023/10/29 10:19:40;;;;;;;16.60;2.70;;;;;;;13.83;100.00;99255.53;5086550;28;20082;-72
2023/10/29 10:22:06;;;;;;;14.32;2.75;;;;;;;13.79;100.00;99260.09;5084539;28;20479;-72
2023/10/29 10:24:47;;;;;;;15.20;2.75;;;;;;;13.80;100.00;99260.94;5085422;28;20035;-72
2023/10/29 10:27:12;;;;;;;15.65;2.65;;;;;;;13.83;100.00;99252.88;5083852;28;20447;-72
2023/10/29 10:29:38;;;;;;;16.25;2.50;;;;;;;13.88;100.00;99235.00;5086260;28;20133;-72
2023/10/29 10:32:05;;;;;;;17.20;2.92;;;;;;;13.99;100.00;99242.59;5084646;28;20040;-71
2023/10/29 10:34:33;;;;;;;13.85;2.53;;;;;;;14.12;100.00;99254.50;5085202;28;20048;-70
2023/10/29 10:37:00;;;;;;;15.63;2.78;;;;;;;14.28;100.00;99253.06;5085277;28;20024;-72
2023/10/29 10:39:31;;;;;;;17.52;3.00;;;;;;;14.42;100.00;99257.00;5084340;28;20035;-72
2023/10/29 10:41:58;;;;;;;15.48;2.70;;;;;;;14.47;100.00;99277.19;5085681;28;20027;-72
2023/10/29 10:44:26;;;;;;;15.00;2.60;;;;;;;14.44;100.00;99287.03;5084219;28;20424;-72
2023/10/29 10:46:53;;;;;;;17.17;2.60;;;;;;;14.33;100.00;99289.22;5086392;28;20343;-72
2023/10/29 10:49:20;;;;;;;15.68;2.60;;;;;;;14.23;100.00;99292.22;5082920;28;20551;-72
2023/10/29 10:51:47;;;;;;;16.35;2.80;;;;;;;14.08;100.00;99301.59;5079206;28;20470;-72
2023/10/29 10:54:17;;;;;;;17.33;2.67;;;;;;;13.97;100.00;99297.56;5086148;28;20028;-71
2023/10/29 10:56:43;;;;;;;14.73;2.50;;;;;;;13.88;100.00;99288.13;5083015;28;20032;-69
2023/10/29 10:59:09;;;;;;;16.08;2.70;;;;;;;13.75;100.00;99282.34;5085851;28;20035;-71
2023/10/29 11:01:36;;;;;;;18.35;2.78;;;;;;;13.71;100.00;99286.88;5083728;28;21174;-72
2023/10/29 11:04:03;;;;;;;15.25;2.72;;;;;;;13.63;100.00;99278.31;5084454;28;20109;-60
2023/10/29 11:06:32;;;;;;;15.60;2.90;;;;;;;13.53;100.00;99280.41;5084932;28;20062;-60
2023/10/29 11:08:59;;;;;;;17.38;3.15;;;;;;;13.49;100.00;99281.41;5083709;28;20028;-60
2023/10/29 11:11:28;;;;;;;16.55;2.70;;;;;;;13.50;100.00;99276.97;5085371;28;20102;-60
2023/10/29 11:14:14;;;;;;;17.73;2.90;;;;;;;13.51;100.00;99279.56;5083349;28;20029;-60
2023/10/29 11:16:57;;;;;;;15.68;2.53;;;;;;;13.42;100.00;99269.25;5082638;28;20422;-60
2023/10/29 11:19:35;;;;;;;16.02;2.83;;;;;;;13.45;100.00;99268.28;5080093;28;20028;-60
2023/10/29 11:22:18;;;;;;;15.65;3.00;;;;;;;13.51;100.00;99241.53;5066744;28;20370;-60
2023/10/29 11:24:44;;;;;;;18.55;2.95;;;;;;;13.39;100.00;99253.44;5085713;28;20355;-60
2023/10/29 11:27:38;;;;;;;14.60;2.60;;;;;;;13.38;100.00;99243.72;5082838;28;20085;-59
2023/10/29 11:30:36;;;;;;;16.45;2.80;;;;;;;13.36;100.00;99246.44;5082762;28;20069;-59
2023/10/29 11:33:10;;;;;;;17.00;2.95;;;;;;;13.43;100.00;99223.22;5078401;28;20040;-60
2023/10/29 11:35:39;;;;;;;16.13;2.78;;;;;;;13.42;100.00;99221.47;5083293;28;20031;-61
2023/10/29 11:38:27;;;;;;;17.27;2.92;;;;;;;13.50;100.00;99218.56;5084062;28;20024;-60
2023/10/29 11:40:53;;;;;;;19.23;3.08;;;;;;;13.52;100.00;99212.28;5079389;28;20032;-60
2023/10/29 11:43:22;;;;;;;16.67;2.95;;;;;;;13.66;100.00;99208.28;5085914;28;20036;-60
2023/10/29 11:45:54;;;;;;;18.60;2.90;;;;;;;13.87;100.00;99196.06;5078404;28;20016;-60
2023/10/29 11:48:19;;;;;;;15.25;2.97;;;;;;;14.18;100.00;99184.34;5078485;28;20039;-60
2023/10/29 11:51:03;;;;;;;16.83;3.00;;;;;;;14.48;100.00;99188.50;5067194;28;20115;-61
2023/10/29 11:53:29;;;;;;;16.67;2.63;;;;;;;14.71;100.00;99177.94;5080813;28;20425;-60
2023/10/29 11:55:59;;;;;;;15.77;2.78;;;;;;;14.57;100.00;99167.81;5084835;28;20480;-73
2023/10/29 11:58:26;;;;;;;15.25;2.72;;;;;;;14.38;100.00;99187.13;5082580;28;20375;-71
2023/10/29 12:00:52;;;;;;;15.02;2.80;;;;;;;14.21;100.00;99184.22;5084737;28;20413;-72
2023/10/29 12:03:21;;;;;;;17.17;2.92;;;;;;;14.16;100.00;99170.25;5081676;28;20066;-72
2023/10/29 12:05:56;;;;;;;15.48;2.83;;;;;;;14.15;100.00;99164.06;5077941;28;20028;-72
2023/10/29 12:08:22;;;;;;;15.57;2.80;;;;;;;14.06;100.00;99178.53;5078337;28;20466;-71
2023/10/29 12:10:52;;;;;;;15.77;2.67;;;;;;;13.99;100.00;99186.78;5085043;28;20032;-69
2023/10/29 12:13:18;;;;;;;17.02;3.15;;;;;;;13.93;100.00;99186.06;5078079;28;20039;-72
2023/10/29 12:15:48;;;;;;;18.75;2.97;;;;;;;13.87;100.00;99196.94;5084603;28;20556;-72
2023/10/29 12:18:20;;;;;;;15.38;2.75;;;;;;;13.87;100.00;99201.38;5081488;28;20025;-72
2023/10/29 12:20:48;;;;;;;15.52;2.80;;;;;;;13.89;100.00;99178.28;5077388;28;20048;-68
2023/10/29 12:23:13;;;;;;;16.17;2.90;;;;;;;13.87;100.00;99186.31;5084199;28;20028;-72
2023/10/29 12:25:39;;;;;;;16.88;2.80;;;;;;;13.92;100.00;99187.03;5081609;28;20035;-72
2023/10/29 12:28:06;;;;;;;15.60;2.72;;;;;;;13.87;100.00;99164.19;5083066;28;20507;-72
2023/10/29 12:30:42;;;;;;;17.63;2.88;;;;;;;13.93;100.00;99179.91;5083096;28;20044;-72
2023/10/29 12:33:20;;;;;;;15.75;2.70;;;;;;;13.90;100.00;99188.00;5083449;28;20040;-71
2023/10/29 12:35:50;;;;;;;16.80;2.70;;;;;;;13.84;100.00;99190.88;5077127;28;20021;-71
2023/10/29 12:38:17;;;;;;;15.20;2.67;;;;;;;13.80;100.00;99190.09;5077352;28;20024;-72
2023/10/29 12:41:16;;;;;;;15.95;2.70;;;;;;;13.86;100.00;99197.88;5084221;28;20032;-72
2023/10/29 12:43:47;;;;;;;16.02;2.80;;;;;;;13.75;100.00;99197.38;5083727;28;20020;-71
2023/10/29 12:46:17;;;;;;;16.63;3.05;;;;;;;13.86;100.00;99192.56;5081237;28;20033;-72
2023/10/29 12:49:00;;;;;;;15.57;2.92;;;;;;;14.01;100.00;99187.59;5084341;28;20420;-72
2023/10/29 12:51:28;;;;;;;17.38;2.88;;;;;;;15.10;100.00;99180.81;5078904;28;20086;-72
2023/10/29 12:54:19;;;;;;;11.55;2.60;;;;;;;16.15;100.00;99180.81;5084193;28;20052;-72
2023/10/29 12:57:01;;;;;;;13.90;2.55;;;;;;;15.94;100.00;99191.50;5084308;28;20119;-72
2023/10/29 12:59:31;;;;;;;13.20;2.45;;;;;;;15.74;100.00;99196.81;5079437;28;20032;-72
2023/10/29 13:02:05;;;;;;;13.38;2.40;;;;;;;15.81;100.00;99198.31;5083234;28;20056;-72
2023/10/29 13:04:32;;;;;;;15.25;2.80;;;;;;;15.30;100.00;99189.78;5082298;28;20111;-68
2023/10/29 13:07:05;;;;;;;13.88;2.45;;;;;;;14.90;100.00;99184.28;5083253;28;20531;-71
2023/10/29 13:09:33;;;;;;;15.40;2.80;;;;;;;14.60;100.00;99189.81;5082505;28;20028;-72
2023/10/29 13:11:59;;;;;;;13.02;2.40;;;;;;;14.41;100.00;99181.69;5083098;28;20089;-69
2023/10/29 13:14:24;;;;;;;16.90;2.80;;;;;;;14.18;100.00;99152.44;5081176;28;20115;-71
2023/10/29 13:16:53;;;;;;;13.68;2.53;;;;;;;14.08;100.00;99151.91;5084404;28;20028;-70
2023/10/29 13:19:19;;;;;;;13.73;2.67;;;;;;;13.91;100.00;99150.75;5077171;28;20091;-71